Time;durP1;ratioP1;P1;durP2;ratioP2;P2;SDS_P1;SDS_P2;PMS_P1;PMS_P2;Temp;Humidity;BMP_temperature;BMP_pressure;BME280_temperature;BME280_humidity;BME280_pressure;Samples;Min_cycle;Max_cycle;Signal;HPM_P1;HPM_P2
2021/07/18 00:01:37;;;;;;;0.80;0.80;;;20.90;99.90;;;;;;5019971;28;20237;-79
2021/07/18 00:04:04;;;;;;;0.70;0.70;;;20.90;99.90;;;;;;5025458;28;20219;-78
2021/07/18 00:06:31;;;;;;;0.70;0.70;;;21.00;99.90;;;;;;5028881;28;20215;-77
2021/07/18 00:08:58;;;;;;;0.85;0.85;;;21.00;99.90;;;;;;5019860;28;20227;-77
2021/07/18 00:11:27;;;;;;;0.70;0.70;;;21.00;99.90;;;;;;5024565;28;20280;-78
2021/07/18 00:13:54;;;;;;;0.80;0.80;;;21.10;99.90;;;;;;5011577;28;20772;-77
2021/07/18 00:16:21;;;;;;;0.70;0.70;;;21.20;99.90;;;;;;5015726;28;20224;-78
2021/07/18 00:18:48;;;;;;;0.90;0.90;;;21.30;99.90;;;;;;5012205;28;20227;-78
2021/07/18 00:21:15;;;;;;;0.70;0.70;;;21.40;99.90;;;;;;5017901;28;20236;-78
2021/07/18 00:23:42;;;;;;;0.70;0.70;;;21.40;99.90;;;;;;5013875;28;20270;-78
2021/07/18 00:26:09;;;;;;;0.70;0.70;;;21.40;99.90;;;;;;5019824;28;20227;-78
2021/07/18 00:28:37;;;;;;;0.85;0.85;;;21.30;99.90;;;;;;5014805;28;20216;-78
2021/07/18 00:31:04;;;;;;;0.70;0.70;;;21.20;99.90;;;;;;5022800;28;20278;-78
2021/07/18 00:33:31;;;;;;;0.80;0.80;;;21.20;99.90;;;;;;5017281;28;20902;-78
2021/07/18 00:35:58;;;;;;;0.80;0.80;;;21.10;99.90;;;;;;5019935;28;20230;-77
2021/07/18 00:38:25;;;;;;;0.73;0.73;;;21.00;99.90;;;;;;5019869;28;20638;-78
2021/07/18 00:40:52;;;;;;;0.82;0.82;;;20.90;99.90;;;;;;5010838;28;20212;-78
2021/07/18 00:43:19;;;;;;;0.80;0.80;;;20.80;99.90;;;;;;5018213;28;20269;-77
2021/07/18 00:45:48;;;;;;;0.85;0.75;;;20.80;99.90;;;;;;5016221;28;20266;-79
2021/07/18 00:48:15;;;;;;;0.82;0.82;;;20.70;99.90;;;;;;5023387;28;20266;-78
2021/07/18 00:50:43;;;;;;;0.82;0.82;;;20.70;99.90;;;;;;5022905;28;20219;-77
2021/07/18 00:53:11;;;;;;;0.70;0.70;;;20.60;99.90;;;;;;5026147;28;20290;-78
2021/07/18 00:55:42;;;;;;;1.00;0.85;;;20.70;99.90;;;;;;5025071;28;20242;-78
2021/07/18 00:58:10;;;;;;;0.82;0.82;;;20.70;99.90;;;;;;5018783;28;20686;-79
2021/07/18 01:00:38;;;;;;;0.60;0.60;;;20.80;99.90;;;;;;5021567;28;20233;-79
2021/07/18 01:03:07;;;;;;;1.08;1.08;;;20.80;99.90;;;;;;5016531;28;20763;-78
2021/07/18 01:05:34;;;;;;;0.70;0.70;;;20.80;99.90;;;;;;5017233;28;20239;-78
2021/07/18 01:08:02;;;;;;;0.80;0.80;;;20.90;99.90;;;;;;5019812;28;20251;-78
2021/07/18 01:10:29;;;;;;;0.70;0.70;;;20.90;99.90;;;;;;5021792;28;20785;-79
2021/07/18 01:12:56;;;;;;;0.95;0.90;;;20.90;99.90;;;;;;5019200;28;20236;-78
2021/07/18 01:15:24;;;;;;;1.10;0.80;;;20.90;99.90;;;;;;5019661;28;20231;-78
2021/07/18 01:17:51;;;;;;;0.95;0.80;;;20.90;99.90;;;;;;5016635;28;20231;-78
2021/07/18 01:20:21;;;;;;;0.90;0.90;;;20.90;99.90;;;;;;5015251;28;20224;-79
2021/07/18 01:22:50;;;;;;;1.05;1.05;;;20.90;99.90;;;;;;5012582;28;20720;-78
2021/07/18 01:25:17;;;;;;;0.88;0.88;;;20.90;99.90;;;;;;5013560;28;20254;-78
2021/07/18 01:27:44;;;;;;;1.02;0.90;;;20.80;99.90;;;;;;5018557;28;20223;-78
2021/07/18 01:30:14;;;;;;;1.00;0.90;;;20.70;99.90;;;;;;5023785;28;20624;-78
2021/07/18 01:32:42;;;;;;;1.05;0.98;;;20.70;99.90;;;;;;5019406;28;20710;-78
2021/07/18 01:35:11;;;;;;;1.50;1.05;;;20.60;99.90;;;;;;5023697;28;20226;-78
2021/07/18 01:37:40;;;;;;;1.63;0.80;;;20.60;99.90;;;;;;5023928;28;20226;-78
2021/07/18 01:40:10;;;;;;;0.75;0.75;;;20.60;99.90;;;;;;5021090;28;20234;-78
2021/07/18 01:42:39;;;;;;;1.20;0.80;;;20.60;99.90;;;;;;5015380;28;20239;-79
2021/07/18 01:45:07;;;;;;;0.95;0.80;;;20.60;99.90;;;;;;5026156;28;20224;-78
2021/07/18 01:47:34;;;;;;;0.75;0.75;;;20.50;99.90;;;;;;5014957;28;20218;-78
2021/07/18 01:50:01;;;;;;;0.90;0.90;;;20.50;99.90;;;;;;5020267;28;20231;-78
2021/07/18 01:52:29;;;;;;;0.98;0.82;;;20.50;99.90;;;;;;5019156;28;20230;-79
2021/07/18 01:54:56;;;;;;;0.90;0.90;;;20.50;99.90;;;;;;5021808;28;20243;-78
2021/07/18 01:57:24;;;;;;;0.93;0.93;;;20.50;99.90;;;;;;5020446;28;20746;-78
2021/07/18 01:59:51;;;;;;;1.08;0.98;;;20.40;99.90;;;;;;5020719;28;20363;-80
2021/07/18 02:02:18;;;;;;;0.90;0.90;;;20.40;99.90;;;;;;5018578;28;20277;-78
2021/07/18 02:04:47;;;;;;;1.92;0.80;;;20.40;99.90;;;;;;5015294;28;20228;-79
2021/07/18 02:07:16;;;;;;;1.92;0.90;;;20.30;99.90;;;;;;5019129;28;20315;-78
2021/07/18 02:09:43;;;;;;;0.63;0.63;;;20.30;99.90;;;;;;5016659;28;20310;-78
2021/07/18 02:12:11;;;;;;;1.00;0.90;;;20.30;99.90;;;;;;5021001;28;20231;-79
2021/07/18 02:14:42;;;;;;;0.63;0.63;;;20.30;99.90;;;;;;5019760;28;20578;-78
2021/07/18 02:17:09;;;;;;;2.72;1.10;;;20.30;99.90;;;;;;5022052;28;20271;-79
2021/07/18 02:19:36;;;;;;;0.80;0.80;;;20.30;99.90;;;;;;5019796;28;20228;-78
2021/07/18 02:22:04;;;;;;;0.90;0.90;;;20.20;99.90;;;;;;5021525;28;20228;-78
2021/07/18 02:24:31;;;;;;;1.00;0.90;;;20.20;99.90;;;;;;5022062;28;20594;-78
2021/07/18 02:26:58;;;;;;;0.80;0.80;;;20.10;99.90;;;;;;5024651;28;20223;-77
2021/07/18 02:29:26;;;;;;;0.90;0.90;;;20.10;99.90;;;;;;5019933;28;20623;-79
2021/07/18 02:31:54;;;;;;;1.00;1.00;;;20.00;99.90;;;;;;5016252;28;20270;-79
2021/07/18 02:34:22;;;;;;;0.80;0.80;;;20.00;99.90;;;;;;5019055;28;20664;-78
2021/07/18 02:36:49;;;;;;;0.80;0.80;;;19.90;99.90;;;;;;5017212;28;20224;-78
2021/07/18 02:39:16;;;;;;;1.00;1.00;;;19.80;99.90;;;;;;5014720;28;20223;-78
2021/07/18 02:41:43;;;;;;;1.17;1.08;;;19.90;99.90;;;;;;5014152;28;20227;-78
2021/07/18 02:44:10;;;;;;;1.08;1.08;;;19.90;99.90;;;;;;5020520;28;20224;-79
2021/07/18 02:46:38;;;;;;;1.38;1.27;;;19.90;99.90;;;;;;5016849;28;20258;-77
2021/07/18 02:49:06;;;;;;;1.17;1.17;;;19.90;99.90;;;;;;5014834;28;20223;-78
2021/07/18 02:51:33;;;;;;;0.98;0.98;;;19.90;99.90;;;;;;5018743;28;20677;-78
2021/07/18 02:54:00;;;;;;;1.73;1.10;;;19.90;99.90;;;;;;5025447;28;20319;-79
2021/07/18 02:56:27;;;;;;;0.93;0.93;;;19.90;99.90;;;;;;5018001;28;20220;-78
2021/07/18 02:58:54;;;;;;;1.10;1.00;;;19.90;99.90;;;;;;5024825;28;20769;-78
2021/07/18 03:01:21;;;;;;;1.08;1.00;;;20.00;99.90;;;;;;5024185;28;20227;-77
2021/07/18 03:03:49;;;;;;;1.33;1.23;;;20.00;99.90;;;;;;5016217;28;20559;-78
2021/07/18 03:06:17;;;;;;;0.90;0.90;;;20.00;99.90;;;;;;5021510;28;20748;-79
2021/07/18 03:08:44;;;;;;;1.20;1.10;;;20.00;99.90;;;;;;5026776;28;20653;-78
2021/07/18 03:11:11;;;;;;;1.05;1.05;;;20.00;99.90;;;;;;5026072;28;20255;-78
2021/07/18 03:13:38;;;;;;;1.13;1.10;;;20.10;99.90;;;;;;5027979;28;20235;-78
2021/07/18 03:16:06;;;;;;;1.35;1.25;;;20.10;99.90;;;;;;5029097;28;20224;-78
2021/07/18 03:18:33;;;;;;;1.02;1.02;;;20.10;99.90;;;;;;5018225;28;20316;-78
2021/07/18 03:21:00;;;;;;;0.95;0.90;;;20.10;99.90;;;;;;5019937;28;20234;-78
2021/07/18 03:23:28;;;;;;;1.13;1.10;;;20.10;99.90;;;;;;5019458;28;20242;-78
2021/07/18 03:25:55;;;;;;;1.00;1.00;;;20.10;99.90;;;;;;5027731;28;20239;-77
2021/07/18 03:28:23;;;;;;;1.10;1.10;;;20.10;99.90;;;;;;5023542;28;20269;-78
2021/07/18 03:30:51;;;;;;;0.90;0.90;;;20.10;99.90;;;;;;5026330;28;20223;-78
2021/07/18 03:33:19;;;;;;;0.93;0.93;;;20.10;99.90;;;;;;5030346;28;20303;-78
2021/07/18 03:35:46;;;;;;;0.90;0.90;;;20.10;99.90;;;;;;5026681;28;20215;-80
2021/07/18 03:38:13;;;;;;;1.00;1.00;;;20.10;99.90;;;;;;5027413;28;20231;-78
2021/07/18 03:40:41;;;;;;;1.88;1.23;;;20.10;99.90;;;;;;5025780;28;20227;-78
2021/07/18 03:43:08;;;;;;;1.13;1.13;;;20.20;99.90;;;;;;5024433;28;20223;-80
2021/07/18 03:45:35;;;;;;;1.05;1.05;;;20.20;99.90;;;;;;5034784;28;20272;-80
2021/07/18 03:48:03;;;;;;;1.00;1.00;;;20.20;99.90;;;;;;5026014;28;20232;-78
2021/07/18 03:50:30;;;;;;;1.33;1.23;;;20.20;99.90;;;;;;5023619;28;20264;-78
2021/07/18 03:52:57;;;;;;;0.93;0.93;;;20.20;99.90;;;;;;5026538;28;20628;-78
2021/07/18 03:55:24;;;;;;;1.00;1.00;;;20.20;99.90;;;;;;5031935;28;20278;-77
2021/07/18 03:57:52;;;;;;;0.80;0.80;;;20.20;99.90;;;;;;5029262;28;20662;-78
2021/07/18 04:00:20;;;;;;;1.00;1.00;;;20.20;99.90;;;;;;5026623;28;20277;-77
2021/07/18 04:02:47;;;;;;;1.10;1.10;;;20.20;99.90;;;;;;5020334;28;20247;-78
2021/07/18 04:05:15;;;;;;;1.42;1.10;;;20.20;99.90;;;;;;5023582;28;20231;-77
2021/07/18 04:07:42;;;;;;;1.10;1.10;;;20.20;99.90;;;;;;5021647;28;20762;-78
2021/07/18 04:10:10;;;;;;;2.42;1.10;;;20.20;99.90;;;;;;5032773;28;20274;-78
2021/07/18 04:12:37;;;;;;;1.35;0.95;;;20.30;99.90;;;;;;5029720;28;20282;-78
2021/07/18 04:15:07;;;;;;;0.90;0.90;;;20.30;99.90;;;;;;5034832;28;20251;-78
2021/07/18 04:17:34;;;;;;;1.30;1.20;;;20.30;99.90;;;;;;5021463;28;20216;-78
2021/07/18 04:20:01;;;;;;;1.20;1.20;;;20.40;99.90;;;;;;5022744;28;20227;-78
2021/07/18 04:22:28;;;;;;;0.93;0.93;;;20.50;99.90;;;;;;5026890;28;20232;-78
2021/07/18 04:24:55;;;;;;;1.13;1.13;;;20.50;99.90;;;;;;5031436;28;20250;-78
2021/07/18 04:27:22;;;;;;;1.05;1.00;;;20.50;99.90;;;;;;5027894;28;20253;-77
2021/07/18 04:29:49;;;;;;;1.48;0.90;;;20.40;99.90;;;;;;5038460;28;20276;-78
2021/07/18 04:32:18;;;;;;;0.95;0.95;;;20.50;99.90;;;;;;5026499;28;20299;-77
2021/07/18 04:34:45;;;;;;;1.00;1.00;;;20.50;99.90;;;;;;5026059;28;20226;-79
2021/07/18 04:37:12;;;;;;;1.02;1.02;;;20.50;99.90;;;;;;5022420;28;20861;-78
2021/07/18 04:39:41;;;;;;;1.05;1.05;;;20.50;99.90;;;;;;5018643;28;20261;-79
2021/07/18 04:42:08;;;;;;;1.55;0.95;;;20.50;99.90;;;;;;5015788;28;20259;-78
2021/07/18 04:44:35;;;;;;;1.30;1.20;;;20.40;99.90;;;;;;5023045;28;20250;-78
2021/07/18 04:47:02;;;;;;;1.10;1.10;;;20.40;99.90;;;;;;5016551;28;20232;-79
2021/07/18 04:49:30;;;;;;;1.30;1.20;;;20.50;99.90;;;;;;5028425;28;20223;-77
2021/07/18 04:51:57;;;;;;;1.30;1.20;;;20.50;99.90;;;;;;5020389;28;20223;-78
2021/07/18 04:54:24;;;;;;;1.20;1.20;;;20.60;99.90;;;;;;5022652;28;20223;-78
2021/07/18 04:56:52;;;;;;;1.40;1.30;;;20.70;99.90;;;;;;5021406;28;20231;-78
2021/07/18 04:59:19;;;;;;;1.05;1.05;;;20.70;99.90;;;;;;5020271;28;20268;-78
2021/07/18 05:01:46;;;;;;;1.17;1.10;;;20.60;99.90;;;;;;5018711;28;20227;-77
2021/07/18 05:04:13;;;;;;;1.10;1.10;;;20.60;99.90;;;;;;5021955;28;20222;-78
2021/07/18 05:06:42;;;;;;;1.30;1.20;;;20.70;99.90;;;;;;5024337;28;20293;-78
2021/07/18 05:09:09;;;;;;;1.60;1.50;;;20.70;99.90;;;;;;5023905;28;20232;-78
2021/07/18 05:11:36;;;;;;;1.13;1.13;;;20.70;99.90;;;;;;5018686;28;20273;-79
2021/07/18 05:14:03;;;;;;;1.25;1.15;;;20.60;99.90;;;;;;5019811;28;20232;-77
2021/07/18 05:16:30;;;;;;;1.20;1.10;;;20.60;99.90;;;;;;5019793;28;20223;-79
2021/07/18 05:18:57;;;;;;;1.10;1.10;;;20.60;99.90;;;;;;5017901;28;20306;-78
2021/07/18 05:21:25;;;;;;;1.25;1.13;;;20.70;99.90;;;;;;5020646;28;20220;-78
2021/07/18 05:23:53;;;;;;;1.40;1.20;;;20.80;99.90;;;;;;5025797;28;20227;-78
2021/07/18 05:26:20;;;;;;;0.93;0.93;;;20.80;99.90;;;;;;5016829;28;20733;-78
2021/07/18 05:28:47;;;;;;;1.27;1.17;;;20.90;99.90;;;;;;5018821;28;20242;-78
2021/07/18 05:31:14;;;;;;;1.17;1.17;;;20.90;99.90;;;;;;5028441;28;20227;-78
2021/07/18 05:33:41;;;;;;;1.10;1.10;;;21.00;99.90;;;;;;5016856;28;20227;-78
2021/07/18 05:36:10;;;;;;;2.03;1.00;;;21.10;99.90;;;;;;5017761;28;20251;-79
2021/07/18 05:38:37;;;;;;;1.20;1.15;;;21.00;99.90;;;;;;5017582;28;20273;-78
2021/07/18 05:41:05;;;;;;;1.17;1.10;;;21.10;99.90;;;;;;5023675;28;20220;-78
2021/07/18 05:43:33;;;;;;;1.13;1.02;;;21.10;99.90;;;;;;5020893;28;20223;-77
2021/07/18 05:46:00;;;;;;;1.10;1.10;;;21.20;99.90;;;;;;5023971;28;20278;-77
2021/07/18 05:48:27;;;;;;;1.10;1.10;;;21.30;99.90;;;;;;5026156;28;20223;-77
2021/07/18 05:50:54;;;;;;;1.38;1.38;;;21.40;99.90;;;;;;5025369;28;20258;-77
2021/07/18 05:53:21;;;;;;;1.30;1.20;;;21.50;99.90;;;;;;5024528;28;20227;-79
2021/07/18 05:55:48;;;;;;;1.25;1.15;;;21.60;99.90;;;;;;5023722;28;20287;-78
2021/07/18 05:58:17;;;;;;;1.48;1.33;;;21.60;99.90;;;;;;5015633;28;20285;-78
2021/07/18 06:00:44;;;;;;;1.20;1.10;;;21.50;99.90;;;;;;5013549;28;20216;-78
2021/07/18 06:03:11;;;;;;;1.00;1.00;;;21.50;99.90;;;;;;5022592;28;20288;-78
2021/07/18 06:05:39;;;;;;;1.25;1.25;;;21.40;99.90;;;;;;5023752;28;20642;-78
2021/07/18 06:08:06;;;;;;;1.83;1.38;;;21.40;99.90;;;;;;5026132;28;20219;-78
2021/07/18 06:10:34;;;;;;;1.40;1.30;;;21.40;99.90;;;;;;5023557;28;20218;-79
2021/07/18 06:13:01;;;;;;;1.30;1.20;;;21.50;99.90;;;;;;5021966;28;20227;-78
2021/07/18 06:15:29;;;;;;;1.70;1.25;;;21.50;99.90;;;;;;5024288;28;20219;-78
2021/07/18 06:17:56;;;;;;;1.70;1.20;;;21.50;99.90;;;;;;5021738;28;20228;-78
2021/07/18 06:20:24;;;;;;;1.27;1.17;;;21.50;99.90;;;;;;5016386;28;20667;-78
2021/07/18 06:22:52;;;;;;;1.83;1.27;;;21.60;99.90;;;;;;5017311;28;20224;-80
2021/07/18 06:25:19;;;;;;;1.40;1.30;;;21.60;99.90;;;;;;5022660;28;20384;-78
2021/07/18 06:27:47;;;;;;;1.83;1.30;;;21.50;99.90;;;;;;5020284;28;20224;-79
2021/07/18 06:30:15;;;;;;;1.50;1.40;;;21.50;99.90;;;;;;5016697;28;20222;-78
2021/07/18 06:32:43;;;;;;;1.50;1.40;;;21.50;99.90;;;;;;5019839;28;20292;-78
2021/07/18 06:35:11;;;;;;;1.42;1.33;;;21.50;99.90;;;;;;5022360;28;20219;-78
2021/07/18 06:37:38;;;;;;;1.48;1.35;;;21.50;99.90;;;;;;5026078;28;20258;-78
2021/07/18 06:40:07;;;;;;;1.25;1.20;;;21.50;99.90;;;;;;5021558;28;20216;-78
2021/07/18 06:42:34;;;;;;;1.40;1.30;;;21.50;99.90;;;;;;5030268;28;20231;-78
2021/07/18 06:45:01;;;;;;;1.60;1.50;;;21.50;99.90;;;;;;5026130;28;20227;-78
2021/07/18 06:47:28;;;;;;;1.20;1.20;;;21.70;99.90;;;;;;5028448;28;20289;-79
2021/07/18 06:49:57;;;;;;;1.20;1.10;;;21.90;99.90;;;;;;5023314;28;20280;-78
2021/07/18 06:52:25;;;;;;;1.60;1.13;;;22.30;99.90;;;;;;5027829;28;20234;-78
2021/07/18 06:54:52;;;;;;;1.50;1.27;;;22.60;99.90;;;;;;5021494;28;20706;-78
2021/07/18 06:57:19;;;;;;;3.00;1.27;;;23.10;99.90;;;;;;5036179;28;20258;-78
2021/07/18 06:59:47;;;;;;;2.15;1.52;;;23.30;99.90;;;;;;5031701;28;20658;-78
2021/07/18 07:02:14;;;;;;;2.00;1.60;;;23.40;99.90;;;;;;5026861;28;20314;-78
2021/07/18 07:04:41;;;;;;;1.48;1.38;;;23.40;99.90;;;;;;5027738;28;20234;-78
2021/07/18 07:07:10;;;;;;;1.10;1.00;;;23.10;99.90;;;;;;5024770;28;20220;-78
2021/07/18 07:09:37;;;;;;;1.60;1.48;;;22.70;99.90;;;;;;5027026;28;20219;-79
2021/07/18 07:12:05;;;;;;;1.38;1.27;;;22.50;99.90;;;;;;5025798;28;20222;-78
2021/07/18 07:14:32;;;;;;;1.48;1.38;;;22.40;99.90;;;;;;5024339;28;20219;-78
2021/07/18 07:16:59;;;;;;;1.65;1.55;;;22.30;99.90;;;;;;5021485;28;20299;-78
2021/07/18 07:19:26;;;;;;;1.20;1.20;;;22.30;99.90;;;;;;5019282;28;20219;-78
2021/07/18 07:21:53;;;;;;;1.38;1.27;;;22.30;99.90;;;;;;5027054;28;20227;-78
2021/07/18 07:24:21;;;;;;;1.30;1.20;;;22.30;99.90;;;;;;5034527;28;20819;-78
2021/07/18 07:26:48;;;;;;;2.25;1.20;;;22.40;99.90;;;;;;5030302;28;20246;-78
2021/07/18 07:29:15;;;;;;;1.40;1.30;;;22.40;99.90;;;;;;5023025;28;20216;-78
2021/07/18 07:31:42;;;;;;;1.60;1.50;;;22.40;99.90;;;;;;5024115;28;20228;-78
2021/07/18 07:34:09;;;;;;;1.58;1.48;;;22.40;99.90;;;;;;5021507;28;20239;-79
2021/07/18 07:36:37;;;;;;;1.17;1.17;;;22.50;99.90;;;;;;5031267;28;20702;-80
2021/07/18 07:39:04;;;;;;;1.42;1.33;;;22.50;99.90;;;;;;5026634;28;20733;-78
2021/07/18 07:41:33;;;;;;;3.35;1.67;;;22.60;99.90;;;;;;5026671;28;20218;-79
2021/07/18 07:44:00;;;;;;;1.58;1.48;;;22.70;99.90;;;;;;5023506;28;20224;-79
2021/07/18 07:46:28;;;;;;;1.60;1.50;;;23.00;99.90;;;;;;5026432;28;20220;-78
2021/07/18 07:48:55;;;;;;;1.42;1.38;;;23.40;99.90;;;;;;5015845;28;20282;-78
2021/07/18 07:51:23;;;;;;;1.45;1.35;;;24.00;99.90;;;;;;5021016;28;20231;-78
2021/07/18 07:53:51;;;;;;;1.50;1.40;;;24.60;99.90;;;;;;5019107;28;20793;-79
2021/07/18 07:56:19;;;;;;;1.50;1.40;;;25.00;99.90;;;;;;5017571;28;20299;-79
2021/07/18 07:58:50;;;;;;;1.77;1.50;;;25.30;99.90;;;;;;5019021;28;20278;-78
2021/07/18 08:01:17;;;;;;;1.73;1.63;;;25.00;99.90;;;;;;5018223;28;20228;-78
2021/07/18 08:03:44;;;;;;;1.58;1.48;;;24.80;99.90;;;;;;5024976;28;20215;-78
2021/07/18 08:06:11;;;;;;;1.73;1.63;;;24.80;99.90;;;;;;5018111;28;20779;-78
2021/07/18 08:08:38;;;;;;;1.50;1.40;;;24.80;99.90;;;;;;5021105;28;20235;-78
2021/07/18 08:11:06;;;;;;;1.55;1.40;;;24.70;99.90;;;;;;5021208;28;20234;-78
2021/07/18 08:13:33;;;;;;;1.50;1.40;;;24.40;99.90;;;;;;5015545;28;20733;-78
2021/07/18 08:16:01;;;;;;;1.50;1.40;;;24.20;99.90;;;;;;5020588;28;20224;-78
2021/07/18 08:18:28;;;;;;;1.63;1.52;;;24.10;99.90;;;;;;5020020;28;20312;-79
2021/07/18 08:20:55;;;;;;;1.48;1.38;;;24.00;99.90;;;;;;5022625;28;20290;-79
2021/07/18 08:23:22;;;;;;;1.15;1.15;;;24.00;99.90;;;;;;5019949;28;20220;-79
2021/07/18 08:25:49;;;;;;;1.35;1.20;;;24.00;99.90;;;;;;5015283;28;20219;-78
2021/07/18 08:28:16;;;;;;;1.40;1.30;;;24.00;99.90;;;;;;5015208;28;20224;-78
2021/07/18 08:30:44;;;;;;;1.50;1.40;;;23.90;99.90;;;;;;5012204;28;20219;-78
2021/07/18 08:33:12;;;;;;;1.50;1.40;;;23.80;99.90;;;;;;5016095;28;20223;-79
2021/07/18 08:35:39;;;;;;;3.13;1.50;;;23.80;99.90;;;;;;5013611;28;20227;-79
2021/07/18 08:38:06;;;;;;;1.40;1.30;;;23.80;99.90;;;;;;5021668;28;20218;-79
2021/07/18 08:40:35;;;;;;;1.50;1.40;;;23.80;99.90;;;;;;5019408;28;20211;-78
2021/07/18 08:43:03;;;;;;;1.65;1.38;;;23.90;99.90;;;;;;5020131;28;20219;-79
2021/07/18 08:45:30;;;;;;;1.98;1.50;;;24.00;99.90;;;;;;5015588;28;20278;-79
2021/07/18 08:47:57;;;;;;;1.60;1.50;;;23.90;99.90;;;;;;5023281;28;20223;-79
2021/07/18 08:50:26;;;;;;;1.70;1.60;;;23.80;99.90;;;;;;5018498;28;20278;-79
2021/07/18 08:52:55;;;;;;;1.30;1.20;;;23.90;99.90;;;;;;5025806;28;20239;-78
2021/07/18 08:55:23;;;;;;;1.30;1.30;;;24.10;99.90;;;;;;5019007;28;20351;-81
2021/07/18 08:57:51;;;;;;;2.47;1.35;;;24.30;99.90;;;;;;5023966;28;20698;-78
2021/07/18 09:00:19;;;;;;;1.38;1.27;;;24.50;99.90;;;;;;5016050;28;20296;-79
2021/07/18 09:02:48;;;;;;;1.40;1.30;;;24.60;99.90;;;;;;5018477;28;20297;-79
2021/07/18 09:05:15;;;;;;;1.52;1.42;;;24.70;99.90;;;;;;5017326;28;20222;-79
2021/07/18 09:07:46;;;;;;;2.00;1.90;;;24.80;99.90;;;;;;5019623;28;20285;-79
2021/07/18 09:10:14;;;;;;;1.45;1.27;;;24.80;99.90;;;;;;5027429;28;20291;-79
2021/07/18 09:12:42;;;;;;;1.52;1.42;;;24.70;99.90;;;;;;5026951;28;20643;-79
2021/07/18 09:15:10;;;;;;;1.50;1.40;;;24.80;99.90;;;;;;5021405;28;20235;-79
2021/07/18 09:17:39;;;;;;;3.95;1.25;;;24.80;99.90;;;;;;5024988;28;20303;-79
2021/07/18 09:20:17;;;;;;;1.52;1.42;;;24.90;99.90;;;;;;5015071;28;20234;-80
2021/07/18 09:22:46;;;;;;;1.25;1.25;;;25.20;99.90;;;;;;5021528;28;20706;-79
2021/07/18 09:25:13;;;;;;;1.40;1.30;;;25.40;99.90;;;;;;5024992;28;20313;-79
2021/07/18 09:27:40;;;;;;;1.98;1.30;;;25.50;99.90;;;;;;5025973;28;20226;-79
2021/07/18 09:30:09;;;;;;;1.17;1.17;;;25.50;99.90;;;;;;5028336;28;20299;-79
2021/07/18 09:32:40;;;;;;;1.48;1.20;;;25.60;99.90;;;;;;5024048;28;21052;-79
2021/07/18 09:35:19;;;;;;;2.00;1.50;;;26.00;99.90;;;;;;5016085;28;20321;-80
2021/07/18 09:37:50;;;;;;;2.75;1.50;;;26.50;99.90;;;;;;5015230;28;20302;-79
2021/07/18 09:40:42;;;;;;;1.70;1.60;;;26.70;99.90;;;;;;4977926;28;20228;-79
2021/07/18 09:43:32;;;;;;;1.52;1.38;;;26.90;99.90;;;;;;5008773;28;20226;-79
2021/07/18 09:49:04;;;;;;;1.50;1.40;;;27.10;99.90;;;;;;4966255;28;20258;-80
2021/07/18 09:52:11;;;;;;;1.35;1.25;;;27.40;99.90;;;;;;5003769;28;20754;-78
2021/07/18 09:54:39;;;;;;;1.45;1.35;;;27.70;99.90;;;;;;5016296;28;20235;-77
2021/07/18 09:57:09;;;;;;;1.23;1.17;;;27.70;99.90;;;;;;5021515;28;20235;-77
2021/07/18 09:59:36;;;;;;;1.58;1.48;;;27.70;99.90;;;;;;5018875;28;20721;-77
2021/07/18 10:02:05;;;;;;;1.42;1.33;;;27.70;99.90;;;;;;5020196;28;20234;-78
2021/07/18 10:04:39;;;;;;;1.40;1.30;;;27.90;99.90;;;;;;5020054;28;20223;-78
2021/07/18 10:07:07;;;;;;;1.83;1.40;;;28.10;99.90;;;;;;5020808;28;20227;-77
2021/07/18 10:09:35;;;;;;;1.40;1.30;;;28.30;99.90;;;;;;5021320;28;20343;-78
2021/07/18 10:12:04;;;;;;;1.52;1.42;;;28.40;99.90;;;;;;5021935;28;20243;-79
2021/07/18 10:14:32;;;;;;;1.60;1.50;;;28.50;99.90;;;;;;5036068;28;20280;-77
2021/07/18 10:17:00;;;;;;;2.30;1.40;;;28.50;99.90;;;;;;5024962;28;20710;-78
2021/07/18 10:19:27;;;;;;;1.20;1.10;;;28.50;99.90;;;;;;5017684;28;20227;-78
2021/07/18 10:21:55;;;;;;;1.58;1.42;;;28.60;99.90;;;;;;5025842;28;20286;-78
2021/07/18 10:24:23;;;;;;;1.17;1.10;;;28.80;99.90;;;;;;5031653;28;20219;-78
2021/07/18 10:26:50;;;;;;;1.20;1.10;;;29.10;99.90;;;;;;5032313;28;20236;-78
2021/07/18 10:29:19;;;;;;;1.42;1.33;;;29.40;99.90;;;;;;5025035;28;20231;-78
2021/07/18 10:31:50;;;;;;;1.48;1.35;;;29.40;99.90;;;;;;5026422;28;20223;-78
2021/07/18 10:34:19;;;;;;;2.28;1.42;;;29.50;99.90;;;;;;5019780;28;20229;-78
2021/07/18 10:36:50;;;;;;;1.40;1.30;;;29.40;99.90;;;;;;5024117;28;20219;-78
2021/07/18 10:39:28;;;;;;;1.50;1.40;;;29.40;99.90;;;;;;5024983;28;20294;-79
2021/07/18 10:41:56;;;;;;;2.13;1.33;;;29.50;99.90;;;;;;5018067;28;20270;-78
2021/07/18 10:44:24;;;;;;;1.30;1.20;;;29.50;99.90;;;;;;5032298;28;20226;-78
2021/07/18 10:46:54;;;;;;;1.15;1.15;;;29.60;99.90;;;;;;5025442;28;20273;-78
2021/07/18 10:49:49;;;;;;;1.25;1.23;;;29.70;99.90;;;;;;5037209;28;20297;-78
2021/07/18 10:52:16;;;;;;;2.53;1.35;;;29.80;99.90;;;;;;5029394;28;20315;-78
2021/07/18 10:54:43;;;;;;;1.33;1.23;;;29.50;99.90;;;;;;5025595;28;20269;-78
2021/07/18 10:57:22;;;;;;;1.25;1.20;;;29.40;99.90;;;;;;5026402;28;20301;-77
2021/07/18 10:59:51;;;;;;;1.40;1.30;;;29.50;99.90;;;;;;5023519;28;20216;-79
2021/07/18 11:02:20;;;;;;;1.20;1.10;;;29.70;99.90;;;;;;5023945;28;20292;-78
2021/07/18 11:04:49;;;;;;;1.38;1.27;;;29.40;99.90;;;;;;5029552;28;20716;-78
2021/07/18 11:07:37;;;;;;;1.10;1.10;;;29.20;99.90;;;;;;5031888;28;20222;-78
2021/07/18 11:10:15;;;;;;;1.30;1.20;;;29.00;99.90;;;;;;5019492;28;20269;-78
2021/07/18 11:12:47;;;;;;;1.20;1.10;;;29.10;99.90;;;;;;5022985;28;20280;-78
2021/07/18 11:15:32;;;;;;;1.50;1.20;;;29.10;99.90;;;;;;5026308;28;20685;-78
2021/07/18 11:18:02;;;;;;;0.90;0.90;;;29.20;99.90;;;;;;5018293;28;20223;-78
2021/07/18 11:20:54;;;;;;;0.98;0.98;;;29.20;99.90;;;;;;5041075;28;20215;-79
2021/07/18 11:23:30;;;;;;;0.98;0.98;;;29.30;99.90;;;;;;5030818;28;20215;-79
2021/07/18 11:26:06;;;;;;;1.00;1.00;;;29.70;99.90;;;;;;5034449;28;20300;-78
2021/07/18 11:28:49;;;;;;;0.90;0.90;;;30.10;99.90;;;;;;5022301;28;20219;-78
2021/07/18 11:31:47;;;;;;;1.08;1.08;;;30.40;99.90;;;;;;5022632;28;20243;-78
2021/07/18 11:34:25;;;;;;;1.20;1.10;;;30.30;99.90;;;;;;5032805;28;20227;-78
2021/07/18 11:37:01;;;;;;;1.10;1.10;;;30.30;99.90;;;;;;5029941;28;20211;-79
2021/07/18 11:39:29;;;;;;;1.35;1.25;;;30.10;99.90;;;;;;5030199;28;20225;-78
2021/07/18 11:41:56;;;;;;;0.95;0.95;;;30.10;99.90;;;;;;5027089;28;20524;-79
2021/07/18 11:44:26;;;;;;;1.00;1.00;;;30.30;99.90;;;;;;5028226;28;20269;-78
2021/07/18 11:46:57;;;;;;;1.10;1.10;;;30.40;99.90;;;;;;5028906;28;20291;-78
2021/07/18 11:49:28;;;;;;;0.90;0.90;;;30.20;99.90;;;;;;5033425;28;20222;-78
2021/07/18 11:51:56;;;;;;;2.08;0.93;;;30.10;99.90;;;;;;5017371;28;20320;-78
2021/07/18 11:54:23;;;;;;;1.23;0.95;;;30.10;99.90;;;;;;5013850;28;20224;-80
2021/07/18 11:56:51;;;;;;;1.30;1.10;;;29.90;99.90;;;;;;5021709;28;20224;-79
2021/07/18 11:59:20;;;;;;;1.17;1.10;;;29.80;99.90;;;;;;5023199;28;20776;-79
2021/07/18 12:01:49;;;;;;;1.00;1.00;;;29.90;99.90;;;;;;5014697;28;20228;-79
2021/07/18 12:04:22;;;;;;;1.20;1.10;;;30.00;99.90;;;;;;5018982;28;20338;-78
2021/07/18 12:06:53;;;;;;;0.90;0.90;;;30.00;99.90;;;;;;5016808;28;20290;-78
2021/07/18 12:09:22;;;;;;;1.05;1.00;;;30.00;99.90;;;;;;5028788;28;20231;-78
2021/07/18 12:11:52;;;;;;;0.88;0.88;;;29.90;99.90;;;;;;5020608;28;20218;-78
2021/07/18 12:14:20;;;;;;;0.70;0.70;;;30.20;99.90;;;;;;5023220;28;20292;-78
2021/07/18 12:16:52;;;;;;;1.08;0.98;;;30.60;99.90;;;;;;5020170;28;20281;-79
2021/07/18 12:19:25;;;;;;;1.48;1.23;;;31.10;99.90;;;;;;5013850;28;20281;-81
2021/07/18 12:21:53;;;;;;;1.00;1.00;;;31.40;99.90;;;;;;5013260;28;20223;-78
2021/07/18 12:24:26;;;;;;;1.20;1.10;;;31.50;99.90;;;;;;5014989;28;20245;-79
2021/07/18 12:27:09;;;;;;;0.93;0.93;;;31.60;99.90;;;;;;5016553;28;20226;-79
2021/07/18 12:29:39;;;;;;;0.90;0.90;;;31.20;99.90;;;;;;5012951;28;20246;-79
2021/07/18 12:32:08;;;;;;;1.10;1.00;;;30.90;99.90;;;;;;5013602;28;20844;-80
2021/07/18 12:34:38;;;;;;;0.88;0.88;;;30.70;99.90;;;;;;5017737;28;20228;-78
2021/07/18 12:37:07;;;;;;;1.20;1.10;;;30.50;99.90;;;;;;5014312;28;20216;-78
2021/07/18 12:39:36;;;;;;;0.80;0.80;;;30.50;99.90;;;;;;5017444;28;20227;-78
2021/07/18 12:42:07;;;;;;;0.60;0.60;;;30.40;99.90;;;;;;5016947;28;20238;-79
2021/07/18 12:44:36;;;;;;;1.88;0.90;;;30.20;99.90;;;;;;5012399;28;20710;-79
2021/07/18 12:47:32;;;;;;;0.80;0.80;;;30.00;99.90;;;;;;5012614;28;20228;-78
2021/07/18 12:50:26;;;;;;;0.90;0.90;;;29.80;99.90;;;;;;5016023;28;20219;-80
2021/07/18 12:52:58;;;;;;;0.90;0.90;;;29.70;99.90;;;;;;5012560;28;20224;-78
2021/07/18 12:55:30;;;;;;;1.00;0.90;;;29.80;99.90;;;;;;5013846;28;20235;-78
2021/07/18 12:57:58;;;;;;;2.38;0.85;;;30.00;99.90;;;;;;5016247;28;20576;-79
2021/07/18 13:00:28;;;;;;;1.90;1.10;;;30.00;99.90;;;;;;5016821;28;20226;-78